createdAt,value
2019-01-12T00:00:47.839Z,1.13
2019-01-12T00:01:47.301Z,1.13
2019-01-12T00:02:47.376Z,1.16
2019-01-12T00:03:47.349Z,1.15
2019-01-12T00:04:47.083Z,1.11
2019-01-12T00:05:47.459Z,1.15
2019-01-12T00:06:47.917Z,1.15
2019-01-12T00:07:47.014Z,1.15
2019-01-12T00:08:47.448Z,1.15
2019-01-12T00:09:47.252Z,1.15
2019-01-12T00:10:47.065Z,1.15
2019-01-12T00:11:46.824Z,1.17
2019-01-12T00:12:47.307Z,1.15
2019-01-12T00:13:47.823Z,1.15
2019-01-12T00:14:47.467Z,1.16
2019-01-12T00:15:47.321Z,1.17
2019-01-12T00:16:47.111Z,1.16
2019-01-12T00:17:47.008Z,1.17
2019-01-12T00:18:47.081Z,1.16
2019-01-12T00:19:47.335Z,1.16
2019-01-12T00:20:47.352Z,1.17
2019-01-12T00:21:47.169Z,1.16
2019-01-12T00:22:46.977Z,1.17
2019-01-12T00:23:47.552Z,1.2
2019-01-12T00:24:47.063Z,1.17
2019-01-12T00:25:46.993Z,1.2
2019-01-12T00:26:47.036Z,1.17
2019-01-12T00:27:47.186Z,1.2
2019-01-12T00:28:47.798Z,1.19
2019-01-12T00:29:47.009Z,1.22
2019-01-12T00:30:47.098Z,1.22
2019-01-12T00:31:46.969Z,1.19
2019-01-12T00:32:47.420Z,1.17
2019-01-12T00:33:47.358Z,1.17
2019-01-12T00:34:47.167Z,1.2
2019-01-12T00:35:47.020Z,1.2
2019-01-12T00:36:47.207Z,1.2
2019-01-12T00:37:47.040Z,1.19
2019-01-12T00:38:46.996Z,1.17
2019-01-12T00:39:47.026Z,1.2
2019-01-12T00:40:47.126Z,1.17
2019-01-12T00:41:47.144Z,1.22
2019-01-12T00:42:47.209Z,1.22
2019-01-12T00:43:47.060Z,1.22
2019-01-12T00:44:47.102Z,1.2
2019-01-12T00:45:47.208Z,1.23
2019-01-12T00:46:46.998Z,1.22
2019-01-12T00:47:46.972Z,1.22
2019-01-12T00:48:47.168Z,1.23
2019-01-12T00:49:47.371Z,1.23
2019-01-12T00:50:47.280Z,1.24
2019-01-12T00:51:46.968Z,1.27
2019-01-12T00:52:47.018Z,1.24
2019-01-12T00:53:47.113Z,1.26
2019-01-12T00:54:47.072Z,1.26
2019-01-12T00:55:46.892Z,1.24
2019-01-12T00:56:47.578Z,1.22
2019-01-12T00:57:47.017Z,1.24
2019-01-12T00:58:47.180Z,1.26
2019-01-12T00:59:47.122Z,1.24
2019-01-12T01:00:47.204Z,1.24
2019-01-12T01:01:46.907Z,1.23
2019-01-12T01:02:47.160Z,1.23
2019-01-12T01:03:47.062Z,1.24
2019-01-12T01:04:47.127Z,1.27
2019-01-12T01:05:47.022Z,1.24
2019-01-12T01:06:47.008Z,1.26
2019-01-12T01:07:47.005Z,1.26
2019-01-12T01:08:46.989Z,1.24
2019-01-12T01:09:47.020Z,1.26
2019-01-12T01:10:46.971Z,1.24
2019-01-12T01:11:47.025Z,1.26
2019-01-12T01:12:46.993Z,1.27
2019-01-12T01:13:46.963Z,1.26
2019-01-12T01:14:47.036Z,1.27
2019-01-12T01:15:47.033Z,1.27
2019-01-12T01:16:47.102Z,1.28
2019-01-12T01:17:46.965Z,1.26
2019-01-12T01:18:47.004Z,1.27
2019-01-12T01:19:47.000Z,1.27
2019-01-12T01:20:46.980Z,1.26
2019-01-12T01:21:47.004Z,1.27
2019-01-12T01:22:47.007Z,1.28
2019-01-12T01:23:47.025Z,1.24
2019-01-12T01:24:47.026Z,1.27
2019-01-12T01:25:47.062Z,1.27
2019-01-12T01:26:46.999Z,1.28
2019-01-12T01:27:46.910Z,1.27
2019-01-12T01:28:47.094Z,1.3
2019-01-12T01:29:47.387Z,1.3
2019-01-12T01:30:46.928Z,1.28
2019-01-12T01:31:46.976Z,1.3
2019-01-12T01:32:47.294Z,1.27
2019-01-12T01:33:46.927Z,1.26
2019-01-12T01:34:47.121Z,1.27
2019-01-12T01:35:47.595Z,1.28
2019-01-12T01:36:47.690Z,1.28
2019-01-12T01:37:47.016Z,1.28
2019-01-12T01:38:47.116Z,1.28
2019-01-12T01:39:47.159Z,1.26
2019-01-12T01:40:46.933Z,1.3
2019-01-12T01:41:47.058Z,1.26
2019-01-12T01:42:47.258Z,1.28
2019-01-12T01:43:47.094Z,1.28
2019-01-12T01:44:46.895Z,1.31
2019-01-12T01:45:46.847Z,1.28
2019-01-12T01:46:46.854Z,1.28
2019-01-12T01:47:47.026Z,1.3
2019-01-12T01:48:47.180Z,1.3
2019-01-12T01:49:47.229Z,1.28
2019-01-12T01:50:46.824Z,1.27
2019-01-12T01:51:47.157Z,1.3
2019-01-12T01:52:48.654Z,1.3
2019-01-12T01:53:47.235Z,1.3
2019-01-12T01:54:53.265Z,1.31
2019-01-12T01:55:47.142Z,1.28
2019-01-12T01:56:47.126Z,1.28
2019-01-12T01:57:47.093Z,1.27
2019-01-12T01:58:47.042Z,1.27
2019-01-12T01:59:46.862Z,1.28
2019-01-12T02:00:46.916Z,1.3
2019-01-12T02:01:47.172Z,1.3
2019-01-12T02:02:46.860Z,1.28
2019-01-12T02:03:47.073Z,1.28
2019-01-12T02:04:47.146Z,1.28
2019-01-12T02:05:47.153Z,1.28
2019-01-12T02:06:46.812Z,1.27
2019-01-12T02:07:46.983Z,1.27
2019-01-12T02:08:46.973Z,1.27
2019-01-12T02:09:47.046Z,1.27
2019-01-12T02:10:47.040Z,1.27
2019-01-12T02:11:46.841Z,1.28
2019-01-12T02:12:47.134Z,1.28
2019-01-12T02:13:46.837Z,1.31
2019-01-12T02:14:47.212Z,1.31
2019-01-12T02:15:47.628Z,1.3
2019-01-12T02:16:47.081Z,1.33
2019-01-12T02:17:46.992Z,1.31
2019-01-12T02:18:47.202Z,1.31
2019-01-12T02:19:46.880Z,1.31
2019-01-12T02:20:47.108Z,1.3
2019-01-12T02:21:47.045Z,1.31
2019-01-12T02:22:47.025Z,1.31
2019-01-12T02:23:47.163Z,1.3
2019-01-12T02:24:46.872Z,1.31
2019-01-12T02:25:46.816Z,1.31
2019-01-12T02:26:46.828Z,1.31
2019-01-12T02:27:47.635Z,1.33
2019-01-12T02:28:46.940Z,1.33
2019-01-12T02:29:47.137Z,1.33
2019-01-12T02:30:46.979Z,1.34
2019-01-12T02:31:47.141Z,1.31
2019-01-12T02:32:46.973Z,1.34
2019-01-12T02:33:47.153Z,1.33
2019-01-12T02:34:47.150Z,1.33
2019-01-12T02:35:46.843Z,1.33
2019-01-12T02:36:47.060Z,1.33
2019-01-12T02:37:47.068Z,1.36
2019-01-12T02:38:46.842Z,1.34
2019-01-12T02:39:46.812Z,1.36
2019-01-12T02:40:46.879Z,1.34
2019-01-12T02:41:46.880Z,1.36
2019-01-12T02:42:46.752Z,1.37
2019-01-12T02:43:47.103Z,1.38
2019-01-12T02:44:47.447Z,1.34
2019-01-12T02:45:46.963Z,1.37
2019-01-12T02:46:46.783Z,1.34
2019-01-12T02:47:47.579Z,1.34
2019-01-12T02:48:46.828Z,1.34
2019-01-12T02:49:47.013Z,1.34
2019-01-12T02:50:46.843Z,1.34
2019-01-12T02:51:47.039Z,1.34
2019-01-12T02:52:47.061Z,1.34
2019-01-12T02:53:46.710Z,1.33
2019-01-12T02:54:46.800Z,1.36
2019-01-12T02:55:47.035Z,1.36
2019-01-12T02:56:46.851Z,1.33
2019-01-12T02:57:46.968Z,1.36
2019-01-12T02:58:46.699Z,1.34
2019-01-12T02:59:46.827Z,1.34
2019-01-12T03:00:46.810Z,1.34
2019-01-12T03:01:46.804Z,1.34
2019-01-12T03:02:46.749Z,1.37
2019-01-12T03:03:46.836Z,1.37
2019-01-12T03:04:46.720Z,1.34
2019-01-12T03:05:46.968Z,1.37
2019-01-12T03:06:46.778Z,1.37
2019-01-12T03:07:46.758Z,1.37
2019-01-12T03:08:46.818Z,1.38
2019-01-12T03:09:46.753Z,1.37
2019-01-12T03:10:46.739Z,1.38
2019-01-12T03:11:46.777Z,1.37
2019-01-12T03:12:47.547Z,1.36
2019-01-12T03:13:47.089Z,1.37
2019-01-12T03:14:47.198Z,1.37
2019-01-12T03:15:47.012Z,1.38
2019-01-12T03:16:46.960Z,1.37
2019-01-12T03:17:46.934Z,1.41
2019-01-12T03:18:47.128Z,1.38
2019-01-12T03:19:47.133Z,1.36
2019-01-12T03:20:47.364Z,1.4
2019-01-12T03:21:47.410Z,1.38
2019-01-12T03:22:46.814Z,1.38
2019-01-12T03:23:46.717Z,1.38
2019-01-12T03:24:46.900Z,1.37
2019-01-12T03:25:47.224Z,1.38
2019-01-12T03:26:46.898Z,1.37
2019-01-12T03:27:46.814Z,1.37
2019-01-12T03:28:46.729Z,1.4
2019-01-12T03:29:47.087Z,1.37
2019-01-12T03:30:46.999Z,1.38
2019-01-12T03:31:47.050Z,1.4
2019-01-12T03:32:46.999Z,1.41
2019-01-12T03:33:46.758Z,1.4
2019-01-12T03:34:46.678Z,1.37
2019-01-12T03:35:47.047Z,1.38
2019-01-12T03:36:47.067Z,1.38
2019-01-12T03:37:47.529Z,1.37
2019-01-12T03:38:46.672Z,1.41
2019-01-12T03:39:46.658Z,1.4
2019-01-12T03:40:46.749Z,1.41
2019-01-12T03:41:46.811Z,1.4
2019-01-12T03:42:46.945Z,1.41
2019-01-12T03:43:47.523Z,1.37
2019-01-12T03:44:46.695Z,1.4
2019-01-12T03:45:46.722Z,1.38
2019-01-12T03:46:46.730Z,1.38
2019-01-12T03:47:46.772Z,1.41
2019-01-12T03:48:46.742Z,1.38
2019-01-12T03:49:47.002Z,1.41
2019-01-12T03:50:46.935Z,1.4
2019-01-12T03:51:46.682Z,1.4
2019-01-12T03:52:47.504Z,1.38
2019-01-12T03:53:46.708Z,1.4
2019-01-12T03:54:46.823Z,1.41
2019-01-12T03:55:46.755Z,1.38
2019-01-12T03:56:46.830Z,1.41
2019-01-12T03:57:46.718Z,1.38
2019-01-12T03:58:46.711Z,1.4
2019-01-12T03:59:46.771Z,1.4
2019-01-12T04:00:46.656Z,1.41
2019-01-12T04:01:46.715Z,1.41
2019-01-12T04:02:46.877Z,1.41
2019-01-12T04:03:46.970Z,1.41
2019-01-12T04:04:46.660Z,1.41
2019-01-12T04:05:46.640Z,1.43
2019-01-12T04:06:47.483Z,1.41
2019-01-12T04:07:46.959Z,1.43
2019-01-12T04:08:46.991Z,1.43
2019-01-12T04:09:46.686Z,1.44
2019-01-12T04:10:46.683Z,1.44
2019-01-12T04:11:47.142Z,1.45
2019-01-12T04:12:46.800Z,1.43
2019-01-12T04:13:46.929Z,1.44
2019-01-12T04:14:46.830Z,1.45
2019-01-12T04:15:46.886Z,1.45
2019-01-12T04:16:47.077Z,1.44
2019-01-12T04:17:46.797Z,1.45
2019-01-12T04:18:46.725Z,1.45
2019-01-12T04:19:46.881Z,1.44
2019-01-12T04:20:46.637Z,1.44
2019-01-12T04:21:47.078Z,1.45
2019-01-12T04:22:47.427Z,1.45
2019-01-12T04:23:46.726Z,1.48
2019-01-12T04:24:47.475Z,1.45
2019-01-12T04:25:47.448Z,1.45
2019-01-12T04:26:46.590Z,1.44
2019-01-12T04:27:46.647Z,1.44
2019-01-12T04:28:46.695Z,1.44
2019-01-12T04:29:46.814Z,1.43
2019-01-12T04:30:46.825Z,1.43
2019-01-12T04:31:46.623Z,1.45
2019-01-12T04:32:46.615Z,1.45
2019-01-12T04:33:46.878Z,1.44
2019-01-12T04:34:46.696Z,1.47
2019-01-12T04:35:46.694Z,1.47
2019-01-12T04:36:46.745Z,1.48
2019-01-12T04:37:46.627Z,1.48
2019-01-12T04:38:46.760Z,1.45
2019-01-12T04:39:46.602Z,1.48
2019-01-12T04:40:47.234Z,1.48
2019-01-12T04:41:46.594Z,1.5
2019-01-12T04:42:46.966Z,1.48
2019-01-12T04:43:46.680Z,1.48
2019-01-12T04:44:47.303Z,1.48
2019-01-12T04:45:46.694Z,1.48
2019-01-12T04:46:46.615Z,1.48
2019-01-12T04:47:46.760Z,1.48
2019-01-12T04:48:46.785Z,1.51
2019-01-12T04:49:46.851Z,1.47
2019-01-12T04:50:46.799Z,1.5
2019-01-12T04:51:46.678Z,1.5
2019-01-12T04:52:46.687Z,1.48
2019-01-12T04:53:46.987Z,1.5
2019-01-12T04:54:46.790Z,1.48
2019-01-12T04:55:46.662Z,1.47
2019-01-12T04:56:47.053Z,1.47
2019-01-12T04:57:46.931Z,1.5
2019-01-12T04:58:47.021Z,1.5
2019-01-12T04:59:46.739Z,1.48
2019-01-12T05:00:47.036Z,1.48
2019-01-12T05:01:47.076Z,1.47
2019-01-12T05:02:46.660Z,1.48
2019-01-12T05:03:46.774Z,1.47
2019-01-12T05:04:46.652Z,1.47
2019-01-12T05:05:46.595Z,1.47
2019-01-12T05:06:46.834Z,1.48
2019-01-12T05:07:46.731Z,1.5
2019-01-12T05:08:46.620Z,1.48
2019-01-12T05:09:46.583Z,1.48
2019-01-12T05:10:46.633Z,1.5
2019-01-12T05:11:46.801Z,1.5
2019-01-12T05:12:46.950Z,1.51
2019-01-12T05:13:46.800Z,1.5
2019-01-12T05:14:46.629Z,1.51
2019-01-12T05:15:46.828Z,1.5
2019-01-12T05:16:47.412Z,1.5
2019-01-12T05:17:46.786Z,1.53
2019-01-12T05:18:46.708Z,1.51
2019-01-12T05:19:46.741Z,1.48
2019-01-12T05:20:47.015Z,1.51
2019-01-12T05:21:47.432Z,1.53
2019-01-12T05:22:46.716Z,1.5
2019-01-12T05:23:46.720Z,1.51
2019-01-12T05:24:46.971Z,1.54
2019-01-12T05:25:49.566Z,1.54
2019-01-12T05:26:46.604Z,1.55
2019-01-12T05:27:46.791Z,1.54
2019-01-12T05:28:46.611Z,1.53
2019-01-12T05:29:46.751Z,1.54
2019-01-12T05:30:46.591Z,1.54
2019-01-12T05:31:46.570Z,1.54
2019-01-12T05:32:46.811Z,1.55
2019-01-12T05:33:46.775Z,1.54
2019-01-12T05:34:47.233Z,1.55
2019-01-12T05:35:47.096Z,1.55
2019-01-12T05:36:47.469Z,1.55
2019-01-12T05:37:46.613Z,1.57
2019-01-12T05:38:46.574Z,1.55
2019-01-12T05:39:46.798Z,1.54
2019-01-12T05:40:46.692Z,1.57
2019-01-12T05:41:47.112Z,1.57
2019-01-12T05:42:46.999Z,1.58
2019-01-12T05:43:47.390Z,1.59
2019-01-12T05:44:46.621Z,1.58
2019-01-12T05:45:46.592Z,1.55
2019-01-12T05:46:46.562Z,1.59
2019-01-12T05:47:46.893Z,1.58
2019-01-12T05:48:46.787Z,1.59
2019-01-12T05:49:46.903Z,1.59
2019-01-12T05:50:46.912Z,1.58
2019-01-12T05:51:46.538Z,1.57
2019-01-12T05:52:47.088Z,1.61
2019-01-12T05:53:46.690Z,1.61
2019-01-12T05:54:46.728Z,1.62
2019-01-12T05:55:46.972Z,1.61
2019-01-12T05:56:46.636Z,1.61
2019-01-12T05:57:46.634Z,1.64
2019-01-12T05:58:46.658Z,1.62
2019-01-12T05:59:46.605Z,1.62
2019-01-12T06:00:46.799Z,1.62
2019-01-12T06:01:46.621Z,1.62
2019-01-12T06:02:46.690Z,1.64
2019-01-12T06:03:46.943Z,1.62
2019-01-12T06:04:46.728Z,1.65
2019-01-12T06:05:46.623Z,1.68
2019-01-12T06:06:47.332Z,1.66
2019-01-12T06:07:46.579Z,1.66
2019-01-12T06:08:46.627Z,1.65
2019-01-12T06:09:46.489Z,1.65
2019-01-12T06:10:46.842Z,1.66
2019-01-12T06:11:46.504Z,1.68
2019-01-12T06:12:46.892Z,1.66
2019-01-12T06:13:46.604Z,1.66
2019-01-12T06:14:46.838Z,1.68
2019-01-12T06:15:46.558Z,1.66
2019-01-12T06:16:46.576Z,1.69
2019-01-12T06:17:46.620Z,1.66
2019-01-12T06:18:46.553Z,1.68
2019-01-12T06:19:46.484Z,1.68
2019-01-12T06:20:46.608Z,1.68
2019-01-12T06:21:46.599Z,1.72
2019-01-12T06:22:46.510Z,1.72
2019-01-12T06:23:46.511Z,1.72
2019-01-12T06:24:46.521Z,1.75
2019-01-12T06:25:46.611Z,1.73
2019-01-12T06:26:46.618Z,1.72
2019-01-12T06:27:46.449Z,1.73
2019-01-12T06:28:46.513Z,1.72
2019-01-12T06:29:46.531Z,1.73
2019-01-12T06:30:46.642Z,1.71
2019-01-12T06:31:46.650Z,1.73
2019-01-12T06:32:46.867Z,1.73
2019-01-12T06:33:46.708Z,1.72
2019-01-12T06:34:47.100Z,1.72
2019-01-12T06:35:46.610Z,1.71
2019-01-12T06:36:46.573Z,1.72
2019-01-12T06:37:46.535Z,1.72
2019-01-12T06:38:46.509Z,1.73
2019-01-12T06:39:46.567Z,1.76
2019-01-12T06:40:46.480Z,1.75
2019-01-12T06:41:46.520Z,1.76
2019-01-12T06:42:46.648Z,1.72
2019-01-12T06:43:46.531Z,1.75
2019-01-12T06:44:46.452Z,1.76
2019-01-12T06:45:46.693Z,1.75
2019-01-12T06:46:46.482Z,1.73
2019-01-12T06:47:46.693Z,1.75
2019-01-12T06:48:47.084Z,1.76
2019-01-12T06:49:46.947Z,1.76
2019-01-12T06:50:46.498Z,1.76
2019-01-12T06:51:47.286Z,1.78
2019-01-12T06:52:47.112Z,1.76
2019-01-12T06:53:46.704Z,1.79
2019-01-12T06:54:46.443Z,1.75
2019-01-12T06:55:47.129Z,1.76
2019-01-12T06:56:46.656Z,1.78
2019-01-12T06:57:46.470Z,1.79
2019-01-12T06:58:46.682Z,1.78
2019-01-12T06:59:46.668Z,1.81
2019-01-12T07:00:46.720Z,1.78
2019-01-12T07:01:46.801Z,1.78
2019-01-12T07:02:46.637Z,1.78
2019-01-12T07:03:46.694Z,1.76
2019-01-12T07:04:46.514Z,1.78
2019-01-12T07:05:46.897Z,1.78
2019-01-12T07:06:46.495Z,1.78
2019-01-12T07:07:46.482Z,1.79
2019-01-12T07:08:46.508Z,1.78
2019-01-12T07:09:46.720Z,1.79
2019-01-12T07:10:46.809Z,1.76
2019-01-12T07:11:46.526Z,1.81
2019-01-12T07:12:46.536Z,1.81
2019-01-12T07:13:46.839Z,1.79
2019-01-12T07:14:46.743Z,1.81
2019-01-12T07:15:46.527Z,1.79
2019-01-12T07:16:46.596Z,1.82
2019-01-12T07:17:46.632Z,1.81
2019-01-12T07:18:46.743Z,1.85
2019-01-12T07:19:46.554Z,1.82
2019-01-12T07:20:46.412Z,1.82
2019-01-12T07:21:46.552Z,1.81
2019-01-12T07:22:46.624Z,1.79
2019-01-12T07:23:46.473Z,1.81
2019-01-12T07:24:46.438Z,1.82
2019-01-12T07:25:46.711Z,1.82
2019-01-12T07:26:46.570Z,1.82
2019-01-12T07:27:46.644Z,1.82
2019-01-12T07:28:46.432Z,1.83
2019-01-12T07:29:46.928Z,1.83
2019-01-12T07:30:46.623Z,1.86
2019-01-12T07:31:46.570Z,1.86
2019-01-12T07:32:46.548Z,1.85
2019-01-12T07:33:54.421Z,1.85
2019-01-12T07:34:46.660Z,1.85
2019-01-12T07:35:46.450Z,1.86
2019-01-12T07:36:46.715Z,1.87
2019-01-12T07:37:47.225Z,1.87
2019-01-12T07:38:46.892Z,1.92
2019-01-12T07:39:46.730Z,1.89
2019-01-12T07:40:46.590Z,1.87
2019-01-12T07:41:46.755Z,1.92
2019-01-12T07:42:46.771Z,1.89
2019-01-12T07:43:46.828Z,1.9
2019-01-12T07:44:46.735Z,1.93
2019-01-12T07:45:46.677Z,1.93
2019-01-12T07:46:46.622Z,1.97
2019-01-12T07:47:46.446Z,1.96
2019-01-12T07:48:46.427Z,1.97
2019-01-12T07:49:46.457Z,1.96
2019-01-12T07:50:46.759Z,1.96
2019-01-12T07:51:46.578Z,1.97
2019-01-12T07:52:46.409Z,1.96
2019-01-12T07:53:46.503Z,1.97
2019-01-12T07:54:48.035Z,1.99
2019-01-12T07:55:46.497Z,1.99
2019-01-12T07:56:46.406Z,1.99
2019-01-12T07:57:46.546Z,1.99
2019-01-12T07:58:46.578Z,2.01
2019-01-12T07:59:46.461Z,2.03
2019-01-12T08:00:46.406Z,2.03
2019-01-12T08:01:46.509Z,2.04
2019-01-12T08:02:46.480Z,2.04
2019-01-12T08:03:46.682Z,2.03
2019-01-12T08:04:46.493Z,2.04
2019-01-12T08:05:46.767Z,2.04
2019-01-12T08:06:46.407Z,2.06
2019-01-12T08:07:46.655Z,2.09
2019-01-12T08:08:46.452Z,2.09
2019-01-12T08:09:46.468Z,2.09
2019-01-12T08:10:46.365Z,2.11
2019-01-12T08:11:46.381Z,2.1
2019-01-12T08:12:46.310Z,2.11
2019-01-12T08:13:46.405Z,2.11
2019-01-12T08:14:46.430Z,2.13
2019-01-12T08:15:46.443Z,2.11
2019-01-12T08:16:46.315Z,2.11
2019-01-12T08:17:46.384Z,2.18
2019-01-12T08:18:46.410Z,2.18
2019-01-12T08:19:46.722Z,2.18
2019-01-12T08:20:46.357Z,2.2
2019-01-12T08:21:46.379Z,2.22
2019-01-12T08:22:46.385Z,2.21
2019-01-12T08:23:46.369Z,2.24
2019-01-12T08:24:46.613Z,2.27
2019-01-12T08:25:46.602Z,2.27
2019-01-12T08:26:47.138Z,2.24
2019-01-12T08:27:46.429Z,2.27
2019-01-12T08:28:46.737Z,2.27
2019-01-12T08:29:46.538Z,2.28
2019-01-12T08:30:46.404Z,2.28
2019-01-12T08:31:46.493Z,2.27
2019-01-12T08:32:47.149Z,2.27
2019-01-12T08:33:46.412Z,2.3
2019-01-12T08:34:46.642Z,2.28
2019-01-12T08:35:46.512Z,2.28
2019-01-12T08:36:46.351Z,2.27
2019-01-12T08:37:46.566Z,2.27
2019-01-12T08:38:46.491Z,2.28
2019-01-12T08:39:46.532Z,2.31
2019-01-12T08:40:46.405Z,2.31
2019-01-12T08:41:46.299Z,2.33
2019-01-12T08:42:46.393Z,2.33
2019-01-12T08:43:46.569Z,2.33
2019-01-12T08:44:46.489Z,2.37
2019-01-12T08:45:46.349Z,2.36
2019-01-12T08:46:46.567Z,2.36
2019-01-12T08:47:46.641Z,2.37
2019-01-12T08:48:46.618Z,2.37
2019-01-12T08:49:46.524Z,2.38
2019-01-12T08:50:46.457Z,2.4
2019-01-12T08:51:46.478Z,2.38
2019-01-12T08:52:46.599Z,2.41
2019-01-12T08:53:46.458Z,2.43
2019-01-12T08:54:46.665Z,2.43
2019-01-12T08:55:46.440Z,2.4
2019-01-12T08:56:47.023Z,2.41
2019-01-12T08:57:46.501Z,2.41
2019-01-12T08:58:46.359Z,2.37
2019-01-12T08:59:46.413Z,2.41
2019-01-12T09:00:46.510Z,2.4
2019-01-12T09:01:46.340Z,2.41
2019-01-12T09:02:46.407Z,2.44
2019-01-12T09:03:46.601Z,2.43
2019-01-12T09:04:46.386Z,2.43
2019-01-12T09:05:46.578Z,2.43
2019-01-12T09:06:47.486Z,2.41
2019-01-12T09:07:46.631Z,2.43
2019-01-12T09:08:46.616Z,2.44
2019-01-12T09:09:46.476Z,2.44
2019-01-12T09:10:46.343Z,2.44
2019-01-12T09:11:47.440Z,2.44
2019-01-12T09:12:46.593Z,2.45
2019-01-12T09:13:46.576Z,2.45
2019-01-12T09:14:46.545Z,2.44
2019-01-12T09:16:03.489Z,2.45
2019-01-12T09:16:46.782Z,2.45
2019-01-12T09:17:46.501Z,2.48
2019-01-12T09:18:46.455Z,2.48
2019-01-12T09:19:46.789Z,2.49
2019-01-12T09:20:46.324Z,2.48
2019-01-12T09:21:46.218Z,2.48
2019-01-12T09:22:46.439Z,2.48
2019-01-12T09:23:46.272Z,2.47
2019-01-12T09:24:46.683Z,2.49
2019-01-12T09:25:46.697Z,2.49
2019-01-12T09:26:46.289Z,2.49
2019-01-12T09:27:46.354Z,2.49
2019-01-12T09:28:46.447Z,2.48
2019-01-12T09:29:46.515Z,2.51
2019-01-12T09:30:48.848Z,2.52
2019-01-12T09:31:46.246Z,2.51
2019-01-12T09:32:46.265Z,2.51
2019-01-12T09:33:46.445Z,2.52
2019-01-12T09:34:47.674Z,2.51
2019-01-12T09:35:46.619Z,2.52
2019-01-12T09:36:47.650Z,2.55
2019-01-12T09:37:46.431Z,2.55
2019-01-12T09:38:46.384Z,2.56
2019-01-12T09:39:46.579Z,2.56
2019-01-12T09:40:46.599Z,2.56
2019-01-12T09:41:46.248Z,2.59
2019-01-12T09:42:46.263Z,2.59
2019-01-12T09:43:46.324Z,2.61
2019-01-12T09:44:46.310Z,2.61
2019-01-12T09:45:46.947Z,2.62
2019-01-12T09:46:46.600Z,2.59
2019-01-12T09:47:46.259Z,2.62
2019-01-12T09:48:48.163Z,2.64
2019-01-12T09:49:46.476Z,2.65
2019-01-12T09:50:46.967Z,2.65
2019-01-12T09:51:46.290Z,2.68
2019-01-12T09:52:46.253Z,2.71
2019-01-12T09:53:46.238Z,2.71
2019-01-12T09:54:46.274Z,2.72
2019-01-12T09:55:46.320Z,2.76
2019-01-12T09:56:52.078Z,2.77
2019-01-12T09:57:50.308Z,2.77
2019-01-12T09:58:49.993Z,2.79
2019-01-12T09:59:46.169Z,2.79
2019-01-12T10:00:46.463Z,2.82
2019-01-12T10:01:46.233Z,2.83
2019-01-12T10:02:46.202Z,2.83
2019-01-12T10:03:46.180Z,2.84
2019-01-12T10:04:46.629Z,2.86
2019-01-12T10:05:46.197Z,2.87
2019-01-12T10:06:46.256Z,2.89
2019-01-12T10:07:46.176Z,2.87
2019-01-12T10:08:46.224Z,2.89
2019-01-12T10:09:46.249Z,2.9
2019-01-12T10:10:46.318Z,2.9
2019-01-12T10:11:46.307Z,2.9
2019-01-12T10:12:46.178Z,2.93
2019-01-12T10:13:46.696Z,2.92
2019-01-12T10:14:46.160Z,2.94
2019-01-12T10:15:46.472Z,2.93
2019-01-12T10:16:46.361Z,2.93
2019-01-12T10:17:50.922Z,2.94
2019-01-12T10:18:48.497Z,2.94
2019-01-12T10:19:50.723Z,2.93
2019-01-12T10:20:49.207Z,2.92
2019-01-12T10:21:46.299Z,2.93
2019-01-12T10:22:46.169Z,2.94
2019-01-12T10:23:47.372Z,2.93
2019-01-12T10:24:50.002Z,2.94
2019-01-12T10:25:46.356Z,2.94
2019-01-12T10:26:46.160Z,2.94
2019-01-12T10:27:53.858Z,2.96
2019-01-12T10:28:50.824Z,2.97
2019-01-12T10:29:46.249Z,2.96
2019-01-12T10:30:55.395Z,2.96
2019-01-12T10:31:46.297Z,2.99
2019-01-12T10:32:46.422Z,2.99
2019-01-12T10:33:46.302Z,2.99
2019-01-12T10:34:48.032Z,3
2019-01-12T10:35:46.218Z,3.01
2019-01-12T10:36:46.141Z,3.01
2019-01-12T10:37:46.181Z,3
2019-01-12T10:38:47.631Z,3
2019-01-12T10:39:46.232Z,3
2019-01-12T10:40:48.888Z,2.99
2019-01-12T10:41:46.923Z,3
2019-01-12T10:42:47.931Z,3.01
2019-01-12T10:43:46.271Z,3.01
2019-01-12T10:44:46.308Z,3.01
2019-01-12T10:45:46.362Z,3.04
2019-01-12T10:46:46.152Z,3.04
2019-01-12T10:47:46.340Z,3.03
2019-01-12T10:48:46.490Z,3.04
2019-01-12T10:49:46.816Z,3.03
2019-01-12T10:50:46.134Z,3.04
2019-01-12T10:51:46.186Z,3.01
2019-01-12T10:52:46.378Z,3.01
2019-01-12T10:53:46.760Z,3.01
2019-01-12T10:54:46.150Z,3
2019-01-12T10:55:46.550Z,3.03
2019-01-12T10:56:46.381Z,3.03
2019-01-12T10:57:46.205Z,3.03
2019-01-12T10:58:46.193Z,3.01
2019-01-12T10:59:46.362Z,3.04
2019-01-12T11:00:46.182Z,3.01
2019-01-12T11:01:46.352Z,3.06
2019-01-12T11:02:46.884Z,3.04
2019-01-12T11:03:46.300Z,3.07
2019-01-12T11:04:46.301Z,3.04
2019-01-12T11:05:46.279Z,3.04
2019-01-12T11:06:46.228Z,3.04
2019-01-12T11:07:46.269Z,3.06
2019-01-12T11:08:46.103Z,3.06
2019-01-12T11:09:46.244Z,3.07
2019-01-12T11:10:46.115Z,3.08
2019-01-12T11:11:46.072Z,3.08
2019-01-12T11:12:46.406Z,3.08
2019-01-12T11:13:46.150Z,3.11
2019-01-12T11:14:47.349Z,3.1
2019-01-12T11:15:46.080Z,3.08
2019-01-12T11:16:46.297Z,3.11
2019-01-12T11:17:46.322Z,3.1
2019-01-12T11:18:46.153Z,3.11
2019-01-12T11:19:46.295Z,3.12
2019-01-12T11:20:46.122Z,3.12
2019-01-12T11:21:46.149Z,3.15
2019-01-12T11:22:46.375Z,3.18
2019-01-12T11:23:46.085Z,3.18
2019-01-12T11:24:46.179Z,3.17
2019-01-12T11:25:46.377Z,3.18
2019-01-12T11:26:46.261Z,3.18
2019-01-12T11:27:46.171Z,3.15
2019-01-12T11:28:46.312Z,3.17
2019-01-12T11:29:46.285Z,3.17
2019-01-12T11:30:46.307Z,3.18
2019-01-12T11:31:46.236Z,3.2
2019-01-12T11:32:46.518Z,3.17
2019-01-12T11:33:46.144Z,3.2
2019-01-12T11:34:46.121Z,3.2
2019-01-12T11:35:46.199Z,3.21
2019-01-12T11:36:46.111Z,3.21
2019-01-12T11:37:46.651Z,3.2
2019-01-12T11:38:46.078Z,3.18
2019-01-12T11:39:46.238Z,3.21
2019-01-12T11:40:46.278Z,3.21
2019-01-12T11:41:46.330Z,3.2
2019-01-12T11:42:46.161Z,3.18
2019-01-12T11:43:46.088Z,3.18
2019-01-12T11:44:46.158Z,3.18
2019-01-12T11:45:46.075Z,3.18
2019-01-12T11:46:46.106Z,3.18
2019-01-12T11:47:46.158Z,3.18
2019-01-12T11:48:46.182Z,3.18
2019-01-12T11:49:46.085Z,3.2
2019-01-12T11:50:46.069Z,3.21
2019-01-12T11:51:47.049Z,3.21
2019-01-12T11:52:46.146Z,3.18
2019-01-12T11:53:46.327Z,3.21
2019-01-12T11:54:46.187Z,3.2
2019-01-12T11:55:46.161Z,3.21
2019-01-12T11:56:46.060Z,3.2
2019-01-12T11:57:46.958Z,3.21
2019-01-12T11:58:46.153Z,3.2
2019-01-12T11:59:46.217Z,3.21
2019-01-12T12:00:47.269Z,3.24
2019-01-12T12:01:46.362Z,3.24
2019-01-12T12:02:46.139Z,3.22
2019-01-12T12:03:46.420Z,3.24
2019-01-12T12:04:46.276Z,3.24
2019-01-12T12:05:46.220Z,3.24
2019-01-12T12:06:46.137Z,3.22
2019-01-12T12:07:46.239Z,3.25
2019-01-12T12:08:46.235Z,3.25
2019-01-12T12:09:49.924Z,3.24
2019-01-12T12:10:47.008Z,3.25
2019-01-12T12:11:46.588Z,3.25
2019-01-12T12:12:46.351Z,3.27
2019-01-12T12:13:46.176Z,3.25
2019-01-12T12:14:46.079Z,3.27
2019-01-12T12:15:46.036Z,3.28
2019-01-12T12:16:46.286Z,3.28
2019-01-12T12:17:46.152Z,3.34
2019-01-12T12:18:46.179Z,3.35
2019-01-12T12:19:46.335Z,3.34
2019-01-12T12:20:46.190Z,3.32
2019-01-12T12:21:46.906Z,3.34
2019-01-12T12:22:46.893Z,3.34
2019-01-12T12:23:46.097Z,3.35
2019-01-12T12:24:46.168Z,3.35
2019-01-12T12:25:46.299Z,3.37
2019-01-12T12:26:46.167Z,3.35
2019-01-12T12:27:46.157Z,3.37
2019-01-12T12:28:46.129Z,3.38
2019-01-12T12:29:46.729Z,3.44
2019-01-12T12:30:46.300Z,3.41
2019-01-12T12:31:46.722Z,3.41
2019-01-12T12:32:46.150Z,3.44
2019-01-12T12:33:46.152Z,3.42
2019-01-12T12:34:46.409Z,3.42
2019-01-12T12:35:46.648Z,3.41
2019-01-12T12:36:46.449Z,3.42
2019-01-12T12:37:46.652Z,3.42
2019-01-12T12:38:46.897Z,3.44
2019-01-12T12:39:46.125Z,3.42
2019-01-12T12:40:46.134Z,3.44
2019-01-12T12:41:46.306Z,3.44
2019-01-12T12:42:46.221Z,3.45
2019-01-12T12:43:46.197Z,3.46
2019-01-12T12:44:46.173Z,3.45
2019-01-12T12:45:46.479Z,3.48
2019-01-12T12:46:46.187Z,3.48
2019-01-12T12:47:46.058Z,3.46
2019-01-12T12:48:49.240Z,3.46
2019-01-12T12:49:46.033Z,3.48
2019-01-12T12:50:46.795Z,3.49
2019-01-12T12:51:46.410Z,3.48
2019-01-12T12:52:46.146Z,3.51
2019-01-12T12:53:46.100Z,3.49
2019-01-12T12:54:45.988Z,3.49
2019-01-12T12:55:46.202Z,3.51
2019-01-12T12:56:46.262Z,3.49
2019-01-12T12:57:46.403Z,3.51
2019-01-12T12:58:46.341Z,3.51
2019-01-12T12:59:46.076Z,3.52
2019-01-12T13:00:46.030Z,3.48
2019-01-12T13:01:46.164Z,3.49
2019-01-12T13:02:45.993Z,3.48
2019-01-12T13:03:46.237Z,3.49
2019-01-12T13:04:46.346Z,3.49
2019-01-12T13:05:46.269Z,3.49
2019-01-12T13:06:45.965Z,3.51
2019-01-12T13:07:45.943Z,3.52
2019-01-12T13:08:48.807Z,3.49
2019-01-12T13:09:46.142Z,3.51
2019-01-12T13:10:46.154Z,3.52
2019-01-12T13:11:46.025Z,3.52
2019-01-12T13:12:46.263Z,3.54
2019-01-12T13:13:46.138Z,3.54
2019-01-12T13:14:46.350Z,3.54
2019-01-12T13:15:45.931Z,3.52
2019-01-12T13:16:46.037Z,3.54
2019-01-12T13:17:46.132Z,3.52
2019-01-12T13:18:46.192Z,3.55
2019-01-12T13:19:46.403Z,3.56
2019-01-12T13:20:46.258Z,3.55
2019-01-12T13:21:46.470Z,3.58